Evergreen, North Carolina
Current Conditions -  °F | °C
As of 7:15 AM on Sunday 23 Nov 2014 (Local Time) from KCPC Reporting Station
Light Rain Light Rain  
Wind Chill: 52°   Ceiling: 9000
Heat Index: 52°   Visibility: 2.5mi
Dew Point: 50°   Wind: 0mph
Humidity: 94%   Direction: NA
Pressure: 30.23"   Gusts: NA
Location:  34.41°N, 78.9°W
Report Text: KCPC 231215Z AUTO 00000KT 2 1/2SM -RA OVC090 11/10 A3023 RMK AO2 P0001
Loading
Personal Weather Stations






























Interactive Weather Map New forecast layout! Learn more

10-Day Weather Forecast

Advertisements
Track Severe Weather on mobile